Airfield :
LOGIN :

Register | Disclaimer

   EN    FR    IT 

 










Legend :    VFR   Marginal VFR   IFR   Intensive IFR   Very Intensive IFR
Visi :
Ceiling :
>= 8 km
>= 3000ft
5 to 8 km
1000 to 3000 ft
1500m to 5 km
500 to 1000 ft
800 to 1500m
200 to 500 ft
< 800m
< 200 ft
Symbols :   Thunderstorms  Fog  Heavy snow  Heavy precipitations  Wind > 20 kt
SIGMETs :     Misc.  Thunderstorms  Icing  Turbulence  Mountain Waves  Volcanic Ashes







- Airport Elevation : 300 ft
- IATA code : MLA


LMML - Malta Luqa

CURRENT METAR :
  • 172045Z 07013KT 9999 SCT020 18/13 Q1008 NOSIG

EXPIRED METARs :
  • 172015Z 07015KT 9999 SCT019 18/13 Q1008 NOSIG
  • 171945Z 07016KT 9999 FEW022 17/13 Q1008 NOSIG
  • 171915Z 08015KT 9999 FEW023 17/13 Q1009 NOSIG
  • 171845Z 08011KT 9999 SCT021 17/13 Q1009 NOSIG
  • 171815Z 08015KT 9999 -RA SCT018 17/14 Q1009 NOSIG

TAF TAF LMML
Valid from the 17 at 18:00 until the 18 at 18:00 UTC


171700Z 1718/1818 08017KT 9999 SCT015
TEMPO 1718/1806 7000 RA BKN010 BKN015
PROB40 1718/1806 VRB20G30KT 3000 TSRA BKN010 BKN015CB
BECMG 1806/1809 33010KT
No reported NOTAMs for that airfield.
1 SIGMET reported for the Malta FIR (LMMM) :
 
Embedded thunderstorms
LMMM SIGMET 3 VALID 171754/172154 LMML
LMMM MALTA FIR EMBD TS OBS EAST OF E01450 AND W OF E01700 TOP FL300 MOV E NC=



MET'MAP, your aeronautical weather chart ! - Copyright ORBIFLY December 2007 - Disclaimer

ORBIFLY MET'MAP TEAM :

Programming & Development : Alexandra Zaïnal
Concept & Development : Baudouin d'Aumeries
Co-Development & Prog : Marc-Olivier Méhu
Technical & hardware support : Manuel Goepfert

Contact : metmap@orbifly.com




SOURCES & CREDITS :

   NOAA